sensor_id;sensor_type;location;lat;lon;timestamp;pressure;altitude;pressure_sealevel;temperature;humidity
70468;BME280;57934;51.532;7.684;2023-06-05T00:02:14;100876.16;;;14.52;70.62
70468;BME280;57934;51.532;7.684;2023-06-05T00:04:42;100881.69;;;14.51;70.55
70468;BME280;57934;51.532;7.684;2023-06-05T00:07:09;100882.28;;;14.46;70.99
70468;BME280;57934;51.532;7.684;2023-06-05T00:09:35;100874.09;;;14.41;71.35
70468;BME280;57934;51.532;7.684;2023-06-05T00:12:02;100883.25;;;14.39;71.70
70468;BME280;57934;51.532;7.684;2023-06-05T00:14:28;100874.47;;;14.25;72.29
70468;BME280;57934;51.532;7.684;2023-06-05T00:16:55;100880.00;;;14.23;72.32
70468;BME280;57934;51.532;7.684;2023-06-05T00:19:22;100882.03;;;14.21;72.29
70468;BME280;57934;51.532;7.684;2023-06-05T00:21:48;100886.75;;;14.26;72.26
70468;BME280;57934;51.532;7.684;2023-06-05T00:24:16;100887.31;;;14.21;72.18
70468;BME280;57934;51.532;7.684;2023-06-05T00:26:42;100890.81;;;14.22;72.19
70468;BME280;57934;51.532;7.684;2023-06-05T00:29:08;100889.16;;;14.14;72.36
70468;BME280;57934;51.532;7.684;2023-06-05T00:31:34;100885.50;;;14.15;72.50
70468;BME280;57934;51.532;7.684;2023-06-05T00:34:00;100880.00;;;14.23;72.36
70468;BME280;57934;51.532;7.684;2023-06-05T00:36:26;100880.63;;;14.25;72.48
70468;BME280;57934;51.532;7.684;2023-06-05T00:38:56;100883.47;;;14.24;72.24
70468;BME280;57934;51.532;7.684;2023-06-05T00:41:23;100879.97;;;14.17;72.55
70468;BME280;57934;51.532;7.684;2023-06-05T00:43:49;100870.00;;;14.12;73.02
70468;BME280;57934;51.532;7.684;2023-06-05T00:46:15;100882.19;;;14.00;73.35
70468;BME280;57934;51.532;7.684;2023-06-05T00:48:41;100879.16;;;14.03;73.10
70468;BME280;57934;51.532;7.684;2023-06-05T00:51:09;100873.81;;;13.96;73.53
70468;BME280;57934;51.532;7.684;2023-06-05T00:53:41;100876.91;;;14.13;72.81
70468;BME280;57934;51.532;7.684;2023-06-05T00:56:08;100876.88;;;13.93;73.43
70468;BME280;57934;51.532;7.684;2023-06-05T00:58:34;100883.00;;;13.87;73.70
70468;BME280;57934;51.532;7.684;2023-06-05T01:01:02;100877.72;;;13.94;73.82
70468;BME280;57934;51.532;7.684;2023-06-05T01:03:30;100876.66;;;13.88;73.73
70468;BME280;57934;51.532;7.684;2023-06-05T01:05:59;100881.78;;;13.83;73.75
70468;BME280;57934;51.532;7.684;2023-06-05T01:08:32;100875.84;;;13.81;73.96
70468;BME280;57934;51.532;7.684;2023-06-05T01:11:19;100883.41;;;13.84;73.71
70468;BME280;57934;51.532;7.684;2023-06-05T01:13:51;100877.06;;;13.85;73.75
70468;BME280;57934;51.532;7.684;2023-06-05T01:16:20;100879.69;;;13.78;73.88
70468;BME280;57934;51.532;7.684;2023-06-05T01:18:59;100873.59;;;13.78;73.96
70468;BME280;57934;51.532;7.684;2023-06-05T01:21:29;100878.22;;;13.63;73.88
70468;BME280;57934;51.532;7.684;2023-06-05T01:23:57;100875.34;;;13.57;74.11
70468;BME280;57934;51.532;7.684;2023-06-05T01:26:30;100874.34;;;13.58;74.46
70468;BME280;57934;51.532;7.684;2023-06-05T01:28:59;100873.94;;;13.55;74.36
70468;BME280;57934;51.532;7.684;2023-06-05T01:31:28;100869.63;;;13.54;74.55
70468;BME280;57934;51.532;7.684;2023-06-05T01:34:01;100870.66;;;13.53;74.50
70468;BME280;57934;51.532;7.684;2023-06-05T01:36:30;100873.06;;;13.41;74.94
70468;BME280;57934;51.532;7.684;2023-06-05T01:38:57;100867.97;;;13.46;74.67
70468;BME280;57934;51.532;7.684;2023-06-05T01:41:25;100872.22;;;13.41;74.79
70468;BME280;57934;51.532;7.684;2023-06-05T01:43:53;100870.94;;;13.30;74.78
70468;BME280;57934;51.532;7.684;2023-06-05T01:46:21;100871.78;;;13.30;75.07
70468;BME280;57934;51.532;7.684;2023-06-05T01:48:48;100877.09;;;13.30;75.24
70468;BME280;57934;51.532;7.684;2023-06-05T01:51:16;100871.19;;;13.35;74.97
70468;BME280;57934;51.532;7.684;2023-06-05T01:53:43;100872.63;;;13.38;74.79
70468;BME280;57934;51.532;7.684;2023-06-05T01:56:09;100871.47;;;13.19;75.31
70468;BME280;57934;51.532;7.684;2023-06-05T01:58:36;100871.09;;;13.22;74.89
70468;BME280;57934;51.532;7.684;2023-06-05T02:01:03;100866.00;;;13.20;75.58
70468;BME280;57934;51.532;7.684;2023-06-05T02:03:29;100867.97;;;13.11;75.29
70468;BME280;57934;51.532;7.684;2023-06-05T02:05:56;100864.47;;;13.04;75.84
70468;BME280;57934;51.532;7.684;2023-06-05T02:08:22;100865.88;;;13.00;75.88
70468;BME280;57934;51.532;7.684;2023-06-05T02:10:49;100867.06;;;12.98;76.34
70468;BME280;57934;51.532;7.684;2023-06-05T02:13:15;100863.13;;;12.87;76.40
70468;BME280;57934;51.532;7.684;2023-06-05T02:15:41;100865.81;;;12.94;76.26
70468;BME280;57934;51.532;7.684;2023-06-05T02:18:08;100860.56;;;13.00;76.41
70468;BME280;57934;51.532;7.684;2023-06-05T02:20:34;100862.38;;;12.93;76.12
70468;BME280;57934;51.532;7.684;2023-06-05T02:23:02;100856.09;;;13.01;76.22
70468;BME280;57934;51.532;7.684;2023-06-05T02:25:30;100852.63;;;13.00;76.30
70468;BME280;57934;51.532;7.684;2023-06-05T02:27:57;100863.44;;;13.05;75.83
70468;BME280;57934;51.532;7.684;2023-06-05T02:30:23;100861.16;;;12.96;76.15
70468;BME280;57934;51.532;7.684;2023-06-05T02:32:50;100856.81;;;12.88;76.06
70468;BME280;57934;51.532;7.684;2023-06-05T02:35:24;100854.44;;;12.93;76.05
70468;BME280;57934;51.532;7.684;2023-06-05T02:37:50;100851.63;;;12.73;76.51
70468;BME280;57934;51.532;7.684;2023-06-05T02:40:17;100857.97;;;12.72;76.85
70468;BME280;57934;51.532;7.684;2023-06-05T02:42:44;100864.44;;;12.70;77.05
70468;BME280;57934;51.532;7.684;2023-06-05T02:45:10;100859.59;;;12.73;77.52
70468;BME280;57934;51.532;7.684;2023-06-05T02:47:37;100853.84;;;12.70;77.46
70468;BME280;57934;51.532;7.684;2023-06-05T02:50:03;100846.69;;;12.63;77.53
70468;BME280;57934;51.532;7.684;2023-06-05T02:52:34;100858.66;;;12.59;77.94
70468;BME280;57934;51.532;7.684;2023-06-05T02:55:08;100845.00;;;12.56;77.65
70468;BME280;57934;51.532;7.684;2023-06-05T02:57:34;100848.44;;;12.50;77.92
70468;BME280;57934;51.532;7.684;2023-06-05T03:00:09;100844.72;;;12.44;78.14
70468;BME280;57934;51.532;7.684;2023-06-05T03:02:39;100845.47;;;12.38;78.73
70468;BME280;57934;51.532;7.684;2023-06-05T03:05:07;100841.97;;;12.31;79.05
70468;BME280;57934;51.532;7.684;2023-06-05T03:07:33;100840.81;;;12.40;78.48
70468;BME280;57934;51.532;7.684;2023-06-05T03:10:01;100841.44;;;12.42;78.67
70468;BME280;57934;51.532;7.684;2023-06-05T03:12:29;100839.44;;;12.44;78.50
70468;BME280;57934;51.532;7.684;2023-06-05T03:14:55;100838.41;;;12.45;78.72
70468;BME280;57934;51.532;7.684;2023-06-05T03:17:21;100838.19;;;12.40;78.85
70468;BME280;57934;51.532;7.684;2023-06-05T03:19:49;100841.78;;;12.32;78.97
70468;BME280;57934;51.532;7.684;2023-06-05T03:22:19;100840.34;;;12.30;78.94
70468;BME280;57934;51.532;7.684;2023-06-05T03:24:46;100838.31;;;12.32;79.26
70468;BME280;57934;51.532;7.684;2023-06-05T03:27:13;100835.09;;;12.36;78.78
70468;BME280;57934;51.532;7.684;2023-06-05T03:29:40;100829.81;;;12.36;78.80
70468;BME280;57934;51.532;7.684;2023-06-05T03:32:06;100836.00;;;12.22;79.39
70468;BME280;57934;51.532;7.684;2023-06-05T03:34:33;100836.00;;;12.22;79.05
70468;BME280;57934;51.532;7.684;2023-06-05T03:37:03;100837.13;;;12.13;79.39
70468;BME280;57934;51.532;7.684;2023-06-05T03:39:31;100836.56;;;12.17;79.80
70468;BME280;57934;51.532;7.684;2023-06-05T03:41:58;100846.16;;;12.18;79.68
70468;BME280;57934;51.532;7.684;2023-06-05T03:44:29;100845.44;;;12.10;79.66
70468;BME280;57934;51.532;7.684;2023-06-05T03:46:56;100846.91;;;12.12;79.82
70468;BME280;57934;51.532;7.684;2023-06-05T03:49:25;100845.69;;;12.15;79.44
70468;BME280;57934;51.532;7.684;2023-06-05T03:51:51;100846.88;;;12.34;78.92
70468;BME280;57934;51.532;7.684;2023-06-05T03:54:18;100844.03;;;12.14;79.06
70468;BME280;57934;51.532;7.684;2023-06-05T03:56:44;100847.28;;;12.09;79.78
70468;BME280;57934;51.532;7.684;2023-06-05T03:59:16;100845.50;;;12.16;80.13
70468;BME280;57934;51.532;7.684;2023-06-05T04:01:47;100844.03;;;12.14;79.82
70468;BME280;57934;51.532;7.684;2023-06-05T04:04:14;100848.38;;;12.00;80.58
70468;BME280;57934;51.532;7.684;2023-06-05T04:06:40;100856.44;;;11.92;80.91
70468;BME280;57934;51.532;7.684;2023-06-05T04:09:08;100849.22;;;12.01;80.67
70468;BME280;57934;51.532;7.684;2023-06-05T04:11:40;100848.91;;;12.10;79.83
70468;BME280;57934;51.532;7.684;2023-06-05T04:14:07;100854.63;;;12.14;80.01
70468;BME280;57934;51.532;7.684;2023-06-05T04:16:35;100846.66;;;12.29;79.00
70468;BME280;57934;51.532;7.684;2023-06-05T04:19:05;100853.94;;;12.27;78.84
70468;BME280;57934;51.532;7.684;2023-06-05T04:21:33;100859.81;;;12.22;78.89
70468;BME280;57934;51.532;7.684;2023-06-05T04:24:04;100854.13;;;12.25;79.19
70468;BME280;57934;51.532;7.684;2023-06-05T04:26:36;100850.72;;;12.31;78.98
70468;BME280;57934;51.532;7.684;2023-06-05T04:29:03;100852.44;;;12.39;78.88
70468;BME280;57934;51.532;7.684;2023-06-05T04:31:32;100850.81;;;12.45;78.80
70468;BME280;57934;51.532;7.684;2023-06-05T04:33:58;100854.81;;;12.34;78.85
70468;BME280;57934;51.532;7.684;2023-06-05T04:36:27;100853.84;;;12.41;78.71
70468;BME280;57934;51.532;7.684;2023-06-05T04:38:55;100857.22;;;12.29;78.43
70468;BME280;57934;51.532;7.684;2023-06-05T04:41:22;100853.84;;;12.41;78.53
70468;BME280;57934;51.532;7.684;2023-06-05T04:43:49;100856.75;;;12.47;78.41
70468;BME280;57934;51.532;7.684;2023-06-05T04:46:16;100857.78;;;12.52;78.07
70468;BME280;57934;51.532;7.684;2023-06-05T04:48:43;100848.38;;;12.43;77.64
70468;BME280;57934;51.532;7.684;2023-06-05T04:51:11;100856.16;;;12.51;76.86
70468;BME280;57934;51.532;7.684;2023-06-05T04:53:37;100849.69;;;12.54;77.07
70468;BME280;57934;51.532;7.684;2023-06-05T04:56:04;100848.44;;;12.50;76.92
70468;BME280;57934;51.532;7.684;2023-06-05T04:58:33;100853.31;;;12.53;76.65
70468;BME280;57934;51.532;7.684;2023-06-05T05:00:59;100844.34;;;12.47;77.29
70468;BME280;57934;51.532;7.684;2023-06-05T05:03:33;100846.22;;;12.53;77.26
70468;BME280;57934;51.532;7.684;2023-06-05T05:05:59;100848.94;;;12.66;77.05
70468;BME280;57934;51.532;7.684;2023-06-05T05:08:26;100851.84;;;12.72;76.75
70468;BME280;57934;51.532;7.684;2023-06-05T05:10:54;100847.03;;;12.82;76.43
70468;BME280;57934;51.532;7.684;2023-06-05T05:13:20;100849.94;;;12.94;76.10
70468;BME280;57934;51.532;7.684;2023-06-05T05:15:47;100853.44;;;13.01;75.67
70468;BME280;57934;51.532;7.684;2023-06-05T05:18:13;100847.97;;;13.09;75.41
70468;BME280;57934;51.532;7.684;2023-06-05T05:20:39;100852.91;;;13.12;75.01
70468;BME280;57934;51.532;7.684;2023-06-05T05:23:07;100854.56;;;13.20;75.06
70468;BME280;57934;51.532;7.684;2023-06-05T05:25:34;100855.47;;;13.27;74.34
70468;BME280;57934;51.532;7.684;2023-06-05T05:28:01;100856.09;;;13.35;74.65
70468;BME280;57934;51.532;7.684;2023-06-05T05:30:27;100851.84;;;13.34;74.63
70468;BME280;57934;51.532;7.684;2023-06-05T05:32:53;100851.84;;;13.34;73.82
70468;BME280;57934;51.532;7.684;2023-06-05T05:35:20;100851.31;;;13.18;74.00
70468;BME280;57934;51.532;7.684;2023-06-05T05:37:48;100842.22;;;12.92;75.41
70468;BME280;57934;51.532;7.684;2023-06-05T05:40:18;100845.72;;;13.41;74.39
70468;BME280;57934;51.532;7.684;2023-06-05T05:42:55;100848.97;;;14.04;72.26
70468;BME280;57934;51.532;7.684;2023-06-05T05:45:23;100854.75;;;14.54;70.61
70468;BME280;57934;51.532;7.684;2023-06-05T05:47:49;100853.81;;;15.20;68.44
70468;BME280;57934;51.532;7.684;2023-06-05T05:50:15;100856.59;;;15.38;67.08
70468;BME280;57934;51.532;7.684;2023-06-05T05:52:41;100853.88;;;15.90;65.86
70468;BME280;57934;51.532;7.684;2023-06-05T05:55:09;100849.63;;;16.14;64.26
70468;BME280;57934;51.532;7.684;2023-06-05T05:57:35;100857.91;;;16.56;63.24
70468;BME280;57934;51.532;7.684;2023-06-05T06:00:03;100856.53;;;16.97;62.01
70468;BME280;57934;51.532;7.684;2023-06-05T06:02:38;100858.22;;;17.28;61.34
70468;BME280;57934;51.532;7.684;2023-06-05T06:05:05;100859.63;;;17.49;60.10
70468;BME280;57934;51.532;7.684;2023-06-05T06:07:31;100858.38;;;17.33;60.95
70468;BME280;57934;51.532;7.684;2023-06-05T06:09:58;100861.41;;;17.36;60.41
70468;BME280;57934;51.532;7.684;2023-06-05T06:12:24;100857.94;;;16.99;61.18
70468;BME280;57934;51.532;7.684;2023-06-05T06:14:50;100858.72;;;17.36;60.29
70468;BME280;57934;51.532;7.684;2023-06-05T06:17:17;100857.31;;;17.34;59.97
70468;BME280;57934;51.532;7.684;2023-06-05T06:19:44;100864.38;;;17.10;61.23
70468;BME280;57934;51.532;7.684;2023-06-05T06:22:10;100862.47;;;17.17;60.54
70468;BME280;57934;51.532;7.684;2023-06-05T06:24:40;100868.22;;;17.32;60.83
70468;BME280;57934;51.532;7.684;2023-06-05T06:27:06;100869.38;;;17.55;60.34
70468;BME280;57934;51.532;7.684;2023-06-05T06:29:34;100867.69;;;17.05;60.81
70468;BME280;57934;51.532;7.684;2023-06-05T06:32:00;100859.88;;;16.92;62.19
70468;BME280;57934;51.532;7.684;2023-06-05T06:34:26;100867.50;;;17.07;62.02
70468;BME280;57934;51.532;7.684;2023-06-05T06:36:52;100870.03;;;16.52;62.49
70468;BME280;57934;51.532;7.684;2023-06-05T06:39:18;100867.72;;;16.05;64.52
70468;BME280;57934;51.532;7.684;2023-06-05T06:41:44;100872.56;;;16.15;65.33
70468;BME280;57934;51.532;7.684;2023-06-05T06:44:11;100861.50;;;16.43;65.47
70468;BME280;57934;51.532;7.684;2023-06-05T06:46:38;100871.97;;;16.88;63.50
70468;BME280;57934;51.532;7.684;2023-06-05T06:49:05;100871.56;;;17.09;62.40
70468;BME280;57934;51.532;7.684;2023-06-05T06:51:32;100872.00;;;17.06;61.66
70468;BME280;57934;51.532;7.684;2023-06-05T06:53:58;100874.16;;;17.34;61.58
70468;BME280;57934;51.532;7.684;2023-06-05T06:56:24;100881.03;;;17.24;61.75
70468;BME280;57934;51.532;7.684;2023-06-05T06:58:53;100880.22;;;17.41;61.28
70468;BME280;57934;51.532;7.684;2023-06-05T07:01:19;100887.38;;;17.59;61.16
70468;BME280;57934;51.532;7.684;2023-06-05T07:03:46;100883.19;;;17.52;60.53
70468;BME280;57934;51.532;7.684;2023-06-05T07:06:12;100878.03;;;17.50;61.56
70468;BME280;57934;51.532;7.684;2023-06-05T07:08:39;100873.69;;;17.56;60.51
70468;BME280;57934;51.532;7.684;2023-06-05T07:11:06;100875.19;;;17.52;61.34
70468;BME280;57934;51.532;7.684;2023-06-05T07:13:34;100882.56;;;17.98;60.27
70468;BME280;57934;51.532;7.684;2023-06-05T07:16:00;100877.09;;;17.93;60.52
70468;BME280;57934;51.532;7.684;2023-06-05T07:18:26;100878.53;;;18.07;59.95
70468;BME280;57934;51.532;7.684;2023-06-05T07:20:53;100869.88;;;18.35;59.62
70468;BME280;57934;51.532;7.684;2023-06-05T07:23:19;100873.06;;;18.68;58.69
70468;BME280;57934;51.532;7.684;2023-06-05T07:25:45;100876.16;;;18.53;59.70
70468;BME280;57934;51.532;7.684;2023-06-05T07:28:12;100869.22;;;18.52;59.24
70468;BME280;57934;51.532;7.684;2023-06-05T07:30:39;100879.47;;;18.90;58.55
70468;BME280;57934;51.532;7.684;2023-06-05T07:33:10;100873.53;;;18.76;58.45
70468;BME280;57934;51.532;7.684;2023-06-05T07:35:36;100869.66;;;19.31;57.47
70468;BME280;57934;51.532;7.684;2023-06-05T07:38:02;100870.63;;;19.01;59.14
70468;BME280;57934;51.532;7.684;2023-06-05T07:40:28;100874.38;;;18.89;58.94
70468;BME280;57934;51.532;7.684;2023-06-05T07:42:54;100873.47;;;19.35;57.52
70468;BME280;57934;51.532;7.684;2023-06-05T07:45:21;100873.34;;;19.42;56.89
70468;BME280;57934;51.532;7.684;2023-06-05T07:47:47;100868.00;;;19.99;55.14
70468;BME280;57934;51.532;7.684;2023-06-05T07:50:13;100871.59;;;20.05;54.82
70468;BME280;57934;51.532;7.684;2023-06-05T07:52:39;100863.56;;;20.21;53.55
70468;BME280;57934;51.532;7.684;2023-06-05T07:55:05;100863.78;;;21.09;51.53
70468;BME280;57934;51.532;7.684;2023-06-05T07:57:34;100854.03;;;21.96;50.30
70468;BME280;57934;51.532;7.684;2023-06-05T08:00:00;100854.94;;;22.71;48.06
70468;BME280;57934;51.532;7.684;2023-06-05T08:02:26;100867.56;;;23.18;47.43
70468;BME280;57934;51.532;7.684;2023-06-05T08:04:52;100860.22;;;23.97;44.58
70468;BME280;57934;51.532;7.684;2023-06-05T08:07:18;100851.34;;;24.22;43.60
70468;BME280;57934;51.532;7.684;2023-06-05T08:09:44;62908.66;;;-145.37;100.00
70468;BME280;57934;51.532;7.684;2023-06-05T08:12:10;62908.66;;;-145.37;100.00
70468;BME280;57934;51.532;7.684;2023-06-05T08:14:37;62908.66;;;-145.37;100.00
70468;BME280;57934;51.532;7.684;2023-06-05T08:17:04;62908.66;;;-145.37;100.00
70468;BME280;57934;51.532;7.684;2023-06-05T08:19:30;62908.66;;;-145.37;100.00
70468;BME280;57934;51.532;7.684;2023-06-05T08:21:57;62908.66;;;-145.37;100.00
70468;BME280;57934;51.532;7.684;2023-06-05T08:24:23;62908.66;;;-145.37;100.00
70468;BME280;57934;51.532;7.684;2023-06-05T08:26:50;62908.66;;;-145.37;100.00
70468;BME280;57934;51.532;7.684;2023-06-05T08:29:16;62908.66;;;-145.37;100.00
70468;BME280;57934;51.532;7.684;2023-06-05T08:31:43;62908.66;;;-145.37;100.00
70468;BME280;57934;51.532;7.684;2023-06-05T08:34:09;62908.66;;;-145.37;100.00
70468;BME280;57934;51.532;7.684;2023-06-05T08:36:35;62908.66;;;-145.37;100.00
70468;BME280;57934;51.532;7.684;2023-06-05T08:39:01;62908.66;;;-145.37;100.00
70468;BME280;57934;51.532;7.684;2023-06-05T08:41:29;62908.66;;;-145.37;100.00
70468;BME280;57934;51.532;7.684;2023-06-05T08:43:56;62908.66;;;-145.37;100.00
70468;BME280;57934;51.532;7.684;2023-06-05T08:46:28;62908.66;;;-145.37;100.00
70468;BME280;57934;51.532;7.684;2023-06-05T08:48:55;62908.66;;;-145.37;100.00
70468;BME280;57934;51.532;7.684;2023-06-05T08:51:22;62908.66;;;-145.37;100.00
70468;BME280;57934;51.532;7.684;2023-06-05T08:53:54;62908.66;;;-145.37;100.00
70468;BME280;57934;51.532;7.684;2023-06-05T08:56:23;62908.66;;;-145.37;100.00
70468;BME280;57934;51.532;7.684;2023-06-05T08:58:50;62908.66;;;-145.37;100.00
70468;BME280;57934;51.532;7.684;2023-06-05T09:01:17;62908.66;;;-145.37;100.00
70468;BME280;57934;51.532;7.684;2023-06-05T09:03:43;62908.66;;;-145.37;100.00
70468;BME280;57934;51.532;7.684;2023-06-05T09:06:10;62908.66;;;-145.37;100.00
70468;BME280;57934;51.532;7.684;2023-06-05T09:08:37;62908.66;;;-145.37;100.00
70468;BME280;57934;51.532;7.684;2023-06-05T09:13:46;62908.66;;;-145.37;100.00
70468;BME280;57934;51.532;7.684;2023-06-05T09:16:12;62908.66;;;-145.37;100.00
70468;BME280;57934;51.532;7.684;2023-06-05T09:18:52;62908.66;;;-145.37;100.00
70468;BME280;57934;51.532;7.684;2023-06-05T09:21:19;62908.66;;;-145.37;100.00
70468;BME280;57934;51.532;7.684;2023-06-05T09:23:45;62908.66;;;-145.37;100.00
70468;BME280;57934;51.532;7.684;2023-06-05T09:26:12;62908.66;;;-145.37;100.00
70468;BME280;57934;51.532;7.684;2023-06-05T09:28:53;62908.66;;;-145.37;100.00
70468;BME280;57934;51.532;7.684;2023-06-05T09:31:20;62908.66;;;-145.37;100.00
70468;BME280;57934;51.532;7.684;2023-06-05T09:33:55;62908.66;;;-145.37;100.00
70468;BME280;57934;51.532;7.684;2023-06-05T09:36:24;62908.66;;;-145.37;100.00
70468;BME280;57934;51.532;7.684;2023-06-05T09:38:52;62908.66;;;-145.37;100.00
70468;BME280;57934;51.532;7.684;2023-06-05T09:41:18;62908.66;;;-145.37;100.00
70468;BME280;57934;51.532;7.684;2023-06-05T09:43:47;62908.66;;;-145.37;100.00
70468;BME280;57934;51.532;7.684;2023-06-05T09:46:16;62908.66;;;-145.37;100.00
70468;BME280;57934;51.532;7.684;2023-06-05T09:48:49;62908.66;;;-145.37;100.00
70468;BME280;57934;51.532;7.684;2023-06-05T09:51:17;62908.66;;;-145.37;100.00
70468;BME280;57934;51.532;7.684;2023-06-05T09:53:56;62908.66;;;-145.37;100.00
70468;BME280;57934;51.532;7.684;2023-06-05T09:56:23;62908.66;;;-145.37;100.00
70468;BME280;57934;51.532;7.684;2023-06-05T09:58:52;62908.66;;;-145.37;100.00
70468;BME280;57934;51.532;7.684;2023-06-05T10:01:21;62908.66;;;-145.37;100.00
70468;BME280;57934;51.532;7.684;2023-06-05T10:04:09;62908.66;;;-145.37;100.00
70468;BME280;57934;51.532;7.684;2023-06-05T10:06:38;62908.66;;;-145.37;100.00
70468;BME280;57934;51.532;7.684;2023-06-05T10:09:06;62908.66;;;-145.37;100.00
70468;BME280;57934;51.532;7.684;2023-06-05T10:11:33;62908.66;;;-145.37;100.00
70468;BME280;57934;51.532;7.684;2023-06-05T10:13:59;62908.66;;;-145.37;100.00
70468;BME280;57934;51.532;7.684;2023-06-05T10:16:27;62908.66;;;-145.37;100.00
70468;BME280;57934;51.532;7.684;2023-06-05T10:18:57;62908.66;;;-145.37;100.00
70468;BME280;57934;51.532;7.684;2023-06-05T10:21:23;62908.66;;;-145.37;100.00
70468;BME280;57934;51.532;7.684;2023-06-05T10:24:06;62908.66;;;-145.37;100.00
70468;BME280;57934;51.532;7.684;2023-06-05T10:26:45;62908.66;;;-145.37;100.00
70468;BME280;57934;51.532;7.684;2023-06-05T10:35:29;62908.66;;;-145.37;100.00
70468;BME280;57934;51.532;7.684;2023-06-05T10:40:39;62908.66;;;-145.37;100.00
70468;BME280;57934;51.532;7.684;2023-06-05T10:43:31;62908.66;;;-145.37;100.00
70468;BME280;57934;51.532;7.684;2023-06-05T10:46:00;62908.66;;;-145.37;100.00
70468;BME280;57934;51.532;7.684;2023-06-05T10:51:37;62908.66;;;-145.37;100.00
70468;BME280;57934;51.532;7.684;2023-06-05T10:54:06;62908.66;;;-145.37;100.00
70468;BME280;57934;51.532;7.684;2023-06-05T10:59:20;62908.66;;;-145.37;100.00
70468;BME280;57934;51.532;7.684;2023-06-05T11:07:40;62908.66;;;-145.37;100.00
70468;BME280;57934;51.532;7.684;2023-06-05T11:10:18;62908.66;;;-145.37;100.00
70468;BME280;57934;51.532;7.684;2023-06-05T11:15:15;62908.66;;;-145.37;100.00
70468;BME280;57934;51.532;7.684;2023-06-05T11:25:29;62908.66;;;-145.37;100.00
70468;BME280;57934;51.532;7.684;2023-06-05T11:28:02;62908.66;;;-145.37;100.00
70468;BME280;57934;51.532;7.684;2023-06-05T11:30:45;62908.66;;;-145.37;100.00
70468;BME280;57934;51.532;7.684;2023-06-05T11:33:18;62908.66;;;-145.37;100.00
70468;BME280;57934;51.532;7.684;2023-06-05T11:35:48;62908.66;;;-145.37;100.00
70468;BME280;57934;51.532;7.684;2023-06-05T11:38:18;62908.66;;;-145.37;100.00
70468;BME280;57934;51.532;7.684;2023-06-05T11:40:45;62908.66;;;-145.37;100.00
70468;BME280;57934;51.532;7.684;2023-06-05T11:43:12;62908.66;;;-145.37;100.00
70468;BME280;57934;51.532;7.684;2023-06-05T11:45:40;62908.66;;;-145.37;100.00
70468;BME280;57934;51.532;7.684;2023-06-05T11:48:07;62908.66;;;-145.37;100.00
70468;BME280;57934;51.532;7.684;2023-06-05T11:50:35;62908.66;;;-145.37;100.00
70468;BME280;57934;51.532;7.684;2023-06-05T11:53:08;62908.66;;;-145.37;100.00
70468;BME280;57934;51.532;7.684;2023-06-05T11:55:35;62908.66;;;-145.37;100.00
70468;BME280;57934;51.532;7.684;2023-06-05T11:58:30;62908.66;;;-145.37;100.00
70468;BME280;57934;51.532;7.684;2023-06-05T12:01:23;62908.66;;;-145.37;100.00
70468;BME280;57934;51.532;7.684;2023-06-05T12:04:05;62908.66;;;-145.37;100.00
70468;BME280;57934;51.532;7.684;2023-06-05T12:06:31;100712.09;;;25.95;30.00
70468;BME280;57934;51.532;7.684;2023-06-05T12:11:35;100706.28;;;24.99;30.14
70468;BME280;57934;51.532;7.684;2023-06-05T12:14:01;100708.19;;;25.04;29.56
70468;BME280;57934;51.532;7.684;2023-06-05T12:18:58;100698.25;;;24.94;30.49
70468;BME280;57934;51.532;7.684;2023-06-05T12:21:25;100696.81;;;25.12;30.47
70468;BME280;57934;51.532;7.684;2023-06-05T12:24:01;100695.16;;;25.16;30.30
70468;BME280;57934;51.532;7.684;2023-06-05T12:26:27;100697.09;;;25.05;30.85
70468;BME280;57934;51.532;7.684;2023-06-05T12:29:05;100693.41;;;24.91;30.96
70468;BME280;57934;51.532;7.684;2023-06-05T12:31:36;100692.28;;;24.97;30.52
70468;BME280;57934;51.532;7.684;2023-06-05T12:34:11;100680.16;;;24.94;31.10
70468;BME280;57934;51.532;7.684;2023-06-05T12:36:40;100684.47;;;24.95;32.22
70468;BME280;57934;51.532;7.684;2023-06-05T12:39:15;100685.09;;;24.82;31.30
70468;BME280;57934;51.532;7.684;2023-06-05T12:41:44;100680.66;;;24.57;31.25
70468;BME280;57934;51.532;7.684;2023-06-05T12:44:10;100673.41;;;24.42;31.23
70468;BME280;57934;51.532;7.684;2023-06-05T12:46:45;100675.75;;;24.64;31.85
70468;BME280;57934;51.532;7.684;2023-06-05T12:49:11;100672.25;;;24.59;31.98
70468;BME280;57934;51.532;7.684;2023-06-05T12:51:37;100671.69;;;24.67;31.47
70468;BME280;57934;51.532;7.684;2023-06-05T12:54:03;100678.56;;;24.88;31.67
70468;BME280;57934;51.532;7.684;2023-06-05T12:56:32;100672.94;;;24.85;32.14
70468;BME280;57934;51.532;7.684;2023-06-05T12:59:00;100669.34;;;24.99;30.87
70468;BME280;57934;51.532;7.684;2023-06-05T13:01:26;100667.22;;;24.96;31.71
70468;BME280;57934;51.532;7.684;2023-06-05T13:03:54;100668.81;;;24.97;31.89
70468;BME280;57934;51.532;7.684;2023-06-05T13:06:20;100668.22;;;24.61;31.63
70468;BME280;57934;51.532;7.684;2023-06-05T13:08:48;100661.44;;;24.64;32.20
70468;BME280;57934;51.532;7.684;2023-06-05T13:11:14;100665.31;;;24.37;32.18
70468;BME280;57934;51.532;7.684;2023-06-05T13:13:41;100660.47;;;24.34;32.64
70468;BME280;57934;51.532;7.684;2023-06-05T13:16:09;100649.94;;;24.43;32.14
70468;BME280;57934;51.532;7.684;2023-06-05T13:18:36;100646.66;;;24.61;32.33
70468;BME280;57934;51.532;7.684;2023-06-05T13:21:03;100655.00;;;24.60;32.56
70468;BME280;57934;51.532;7.684;2023-06-05T13:23:32;100650.66;;;24.64;31.72
70468;BME280;57934;51.532;7.684;2023-06-05T13:25:59;100643.19;;;24.50;32.33
70468;BME280;57934;51.532;7.684;2023-06-05T13:28:25;100641.84;;;24.43;31.83
70468;BME280;57934;51.532;7.684;2023-06-05T13:30:51;100642.75;;;24.77;32.08